createdAt,value
2018-03-23T00:00:40.146Z,98.90
2018-03-23T00:03:10.994Z,98.90
2018-03-23T00:05:42.245Z,99.00
2018-03-23T00:08:14.465Z,98.80
2018-03-23T00:10:45.328Z,99.10
2018-03-23T00:13:15.878Z,99.10
2018-03-23T00:15:48.082Z,99.20
2018-03-23T00:18:18.731Z,99.20
2018-03-23T00:20:49.005Z,99.20
2018-03-23T00:23:19.795Z,99.20
2018-03-23T00:25:50.314Z,99.20
2018-03-23T00:28:20.876Z,99.10
2018-03-23T00:30:51.627Z,99.10
2018-03-23T00:33:21.965Z,99.10
2018-03-23T00:35:52.953Z,99.00
2018-03-23T00:38:23.993Z,98.90
2018-03-23T00:40:54.601Z,99.00
2018-03-23T00:43:26.008Z,99.10
2018-03-23T00:45:56.472Z,99.10
2018-03-23T00:48:27.492Z,99.30
2018-03-23T00:50:59.251Z,99.10
2018-03-23T00:53:30.450Z,99.10
2018-03-23T00:56:01.010Z,99.10
2018-03-23T00:58:31.616Z,99.10
2018-03-23T01:01:02.454Z,99.30
2018-03-23T01:03:33.008Z,99.40
2018-03-23T01:06:03.535Z,99.40
2018-03-23T01:08:34.253Z,99.60
2018-03-23T01:11:04.411Z,99.50
2018-03-23T01:13:35.564Z,99.70
2018-03-23T01:16:06.808Z,99.60
2018-03-23T01:18:38.387Z,99.30
2018-03-23T01:21:11.268Z,99.30
2018-03-23T01:23:41.980Z,99.60
2018-03-23T01:26:13.303Z,99.50
2018-03-23T01:28:44.154Z,99.50
2018-03-23T01:31:15.364Z,99.70
2018-03-23T01:33:45.355Z,99.50
2018-03-23T01:36:18.284Z,99.70
2018-03-23T01:38:49.913Z,99.40
2018-03-23T01:41:21.867Z,99.30
2018-03-23T01:43:54.096Z,99.40
2018-03-23T01:46:26.118Z,99.30
2018-03-23T01:48:57.988Z,99.40
2018-03-23T01:51:31.194Z,99.60
2018-03-23T01:54:02.161Z,99.60
2018-03-23T01:56:36.617Z,99.60
2018-03-23T01:59:08.541Z,99.80
2018-03-23T02:01:39.416Z,99.90
2018-03-23T02:04:12.972Z,99.90
2018-03-23T02:06:45.878Z,99.80
2018-03-23T02:09:16.699Z,99.90
2018-03-23T02:11:48.302Z,99.90
2018-03-23T02:14:19.435Z,99.90
2018-03-23T02:16:49.769Z,99.90
2018-03-23T02:19:20.126Z,99.90
2018-03-23T02:21:50.830Z,99.90
2018-03-23T02:24:20.481Z,99.90
2018-03-23T02:26:51.174Z,99.90
2018-03-23T02:29:21.235Z,99.90
2018-03-23T02:31:52.737Z,99.90
2018-03-23T02:34:30.262Z,99.90
2018-03-23T02:37:13.279Z,99.90
2018-03-23T02:39:43.930Z,99.90
2018-03-23T02:42:14.806Z,99.90
2018-03-23T02:44:45.427Z,99.90
2018-03-23T02:47:15.839Z,99.90
2018-03-23T02:49:46.240Z,99.90
2018-03-23T02:52:16.494Z,99.90
2018-03-23T02:54:52.337Z,99.90
2018-03-23T02:57:22.588Z,99.90
2018-03-23T02:59:53.183Z,99.90
2018-03-23T03:02:27.175Z,99.90
2018-03-23T03:04:58.290Z,99.90
2018-03-23T03:07:27.925Z,99.90
2018-03-23T03:09:57.691Z,99.90
2018-03-23T03:12:27.336Z,99.90
2018-03-23T03:14:58.342Z,99.90
2018-03-23T03:17:28.638Z,99.90
2018-03-23T03:20:05.818Z,99.90
2018-03-23T03:22:35.989Z,99.90
2018-03-23T03:25:05.456Z,99.90
2018-03-23T03:27:34.827Z,99.90
2018-03-23T03:30:04.692Z,99.90
2018-03-23T03:32:34.054Z,99.90
2018-03-23T03:35:04.968Z,99.90
2018-03-23T03:37:34.899Z,99.90
2018-03-23T03:40:04.788Z,99.90
2018-03-23T03:42:34.308Z,99.90
2018-03-23T03:45:03.805Z,99.90
2018-03-23T03:47:33.298Z,99.90
2018-03-23T03:50:02.854Z,99.90
2018-03-23T03:52:32.283Z,99.90
2018-03-23T03:55:01.801Z,99.90
2018-03-23T03:57:31.209Z,99.90
2018-03-23T04:00:00.695Z,99.90
2018-03-23T04:02:30.034Z,99.90
2018-03-23T04:04:59.625Z,99.90
2018-03-23T04:07:29.253Z,99.90
2018-03-23T04:09:59.369Z,99.90
2018-03-23T04:12:29.068Z,99.90
2018-03-23T04:14:58.380Z,99.90
2018-03-23T04:17:28.958Z,99.90
2018-03-23T04:19:59.186Z,99.90
2018-03-23T04:22:28.689Z,99.90
2018-03-23T04:24:58.464Z,99.90
2018-03-23T04:27:30.100Z,99.90
2018-03-23T04:29:59.724Z,99.90
2018-03-23T04:32:31.570Z,99.90
2018-03-23T04:35:01.836Z,99.90
2018-03-23T04:37:32.013Z,99.90
2018-03-23T04:40:02.093Z,99.90
2018-03-23T04:42:31.884Z,99.90
2018-03-23T04:45:02.919Z,99.90
2018-03-23T04:47:32.550Z,99.90
2018-03-23T04:50:02.071Z,99.90
2018-03-23T04:52:31.553Z,99.90
2018-03-23T04:55:01.096Z,99.90
2018-03-23T04:57:30.962Z,99.70
2018-03-23T05:00:01.258Z,99.50
2018-03-23T05:02:30.622Z,99.40
2018-03-23T05:05:00.437Z,99.20
2018-03-23T05:07:32.122Z,99.40
2018-03-23T05:10:02.567Z,99.20
2018-03-23T05:12:32.916Z,99.30
2018-03-23T05:15:02.609Z,99.30
2018-03-23T05:17:32.910Z,98.80
2018-03-23T05:20:02.977Z,98.80
2018-03-23T05:22:32.432Z,98.90
2018-03-23T05:25:02.032Z,98.70
2018-03-23T05:27:33.097Z,98.90
2018-03-23T05:30:03.557Z,98.70
2018-03-23T05:32:33.202Z,98.70
2018-03-23T05:35:03.267Z,98.50
2018-03-23T05:37:33.753Z,98.30
2018-03-23T05:40:03.890Z,98.20
2018-03-23T05:42:33.529Z,98.00
2018-03-23T05:45:03.508Z,98.20
2018-03-23T05:47:34.595Z,97.90
2018-03-23T05:50:06.302Z,97.90
2018-03-23T05:52:49.261Z,97.60
2018-03-23T05:55:26.614Z,97.90
2018-03-23T05:57:59.713Z,97.80
2018-03-23T06:00:30.614Z,97.80
2018-03-23T06:03:02.057Z,97.40
2018-03-23T06:05:34.722Z,97.40
2018-03-23T06:08:06.162Z,97.30
2018-03-23T06:10:41.073Z,97.00
2018-03-23T06:13:13.215Z,97.20
2018-03-23T06:15:45.422Z,96.90
2018-03-23T06:18:15.760Z,96.70
2018-03-23T06:20:47.719Z,96.80
2018-03-23T06:23:19.251Z,96.70
2018-03-23T06:25:50.687Z,96.70
2018-03-23T06:28:22.217Z,96.70
2018-03-23T06:30:52.739Z,96.60
2018-03-23T06:33:23.069Z,97.10
2018-03-23T06:35:54.456Z,97.00
2018-03-23T06:38:26.043Z,96.80
2018-03-23T06:40:56.778Z,96.90
2018-03-23T06:43:31.158Z,96.40
2018-03-23T06:46:05.937Z,96.30
2018-03-23T06:48:36.670Z,96.30
2018-03-23T06:51:07.415Z,96.50
2018-03-23T06:53:37.601Z,96.00
2018-03-23T06:56:08.144Z,96.30
2018-03-23T06:58:40.032Z,96.00
2018-03-23T07:01:10.786Z,96.50
2018-03-23T07:03:42.614Z,96.40
2018-03-23T07:06:15.580Z,96.50
2018-03-23T07:08:46.498Z,96.10
2018-03-23T07:11:18.971Z,96.30
2018-03-23T07:13:51.147Z,96.50
2018-03-23T07:16:22.932Z,96.50
2018-03-23T07:18:53.267Z,96.30
2018-03-23T07:21:24.650Z,96.70
2018-03-23T07:23:55.180Z,96.10
2018-03-23T07:26:26.510Z,96.80
2018-03-23T07:28:57.971Z,96.80
2018-03-23T07:31:32.373Z,96.90
2018-03-23T07:34:16.242Z,97.60
2018-03-23T07:36:48.575Z,97.50
2018-03-23T07:39:23.526Z,97.50
2018-03-23T07:42:02.076Z,97.10
2018-03-23T07:44:33.319Z,97.10
2018-03-23T07:47:04.777Z,96.40
2018-03-23T07:49:38.356Z,96.40
2018-03-23T07:52:17.776Z,96.40
2018-03-23T07:55:12.789Z,95.90
2018-03-23T07:57:46.506Z,95.50
2018-03-23T08:00:18.806Z,94.90
2018-03-23T08:02:52.132Z,94.90
2018-03-23T08:05:26.741Z,94.70
2018-03-23T08:07:58.928Z,94.80
2018-03-23T08:10:30.490Z,93.60
2018-03-23T08:13:04.009Z,91.80
2018-03-23T08:15:37.191Z,91.70
2018-03-23T08:18:08.724Z,91.70
2018-03-23T08:20:44.286Z,92.00
2018-03-23T08:23:14.654Z,92.40
2018-03-23T08:25:46.069Z,91.20
2018-03-23T08:28:19.957Z,91.60
2018-03-23T08:30:50.366Z,91.60
2018-03-23T08:33:21.338Z,90.80
2018-03-23T08:35:54.902Z,91.20
2018-03-23T08:38:26.072Z,91.00
2018-03-23T08:40:56.561Z,91.00
2018-03-23T08:43:29.331Z,90.50
2018-03-23T08:46:00.076Z,91.40
2018-03-23T08:48:30.645Z,91.00
2018-03-23T08:51:01.950Z,90.50
2018-03-23T08:53:32.957Z,91.10
2018-03-23T08:56:03.645Z,90.60
2018-03-23T08:58:34.150Z,90.30
2018-03-23T09:01:05.168Z,88.90
2018-03-23T09:03:36.476Z,88.60
2018-03-23T09:06:06.983Z,88.60
2018-03-23T09:08:44.772Z,88.70
2018-03-23T09:11:17.138Z,87.00
2018-03-23T09:13:49.293Z,87.30
2018-03-23T09:16:21.270Z,85.30
2018-03-23T09:18:53.326Z,86.70
2018-03-23T09:21:28.132Z,86.30
2018-03-23T09:24:00.337Z,86.30
2018-03-23T09:26:32.247Z,84.90
2018-03-23T09:29:04.551Z,85.10
2018-03-23T09:31:37.577Z,83.90
2018-03-23T09:34:11.708Z,82.30
2018-03-23T09:36:47.449Z,82.30
2018-03-23T09:39:19.733Z,81.60
2018-03-23T09:41:53.235Z,80.50
2018-03-23T09:44:25.121Z,80.50
2018-03-23T09:46:57.437Z,81.80
2018-03-23T09:49:28.355Z,81.40
2018-03-23T09:51:59.682Z,81.20
2018-03-23T09:54:31.068Z,79.60
2018-03-23T09:57:01.499Z,79.50
2018-03-23T09:59:32.282Z,79.60
2018-03-23T10:02:02.972Z,79.40
2018-03-23T10:04:33.064Z,79.90
2018-03-23T10:07:03.311Z,78.00
2018-03-23T10:09:33.867Z,76.90
2018-03-23T10:12:04.816Z,76.20
2018-03-23T10:14:35.106Z,76.10
2018-03-23T10:17:05.850Z,77.60
2018-03-23T10:19:40.299Z,77.60
2018-03-23T10:22:11.334Z,76.10
2018-03-23T10:24:47.257Z,75.60
2018-03-23T10:27:17.860Z,75.50
2018-03-23T10:29:48.632Z,77.20
2018-03-23T10:32:20.469Z,80.90
2018-03-23T10:34:51.194Z,80.20
2018-03-23T10:37:22.472Z,80.60
2018-03-23T10:39:54.793Z,80.50
2018-03-23T10:42:27.914Z,79.80
2018-03-23T10:44:59.219Z,79.80
2018-03-23T10:47:29.845Z,78.70
2018-03-23T10:50:01.313Z,78.00
2018-03-23T10:52:31.858Z,78.30
2018-03-23T10:55:03.231Z,78.20
2018-03-23T10:57:34.355Z,78.20
2018-03-23T11:00:06.459Z,78.30
2018-03-23T11:02:42.372Z,78.90
2018-03-23T11:05:13.556Z,79.00
2018-03-23T11:07:47.907Z,80.50
2018-03-23T11:10:21.805Z,80.40
2018-03-23T11:13:00.478Z,80.70
2018-03-23T11:15:31.728Z,80.10
2018-03-23T11:18:02.014Z,80.60
2018-03-23T11:20:34.896Z,80.60
2018-03-23T11:23:06.265Z,80.60
2018-03-23T11:25:36.628Z,81.00
2018-03-23T11:28:07.145Z,81.60
2018-03-23T11:30:37.544Z,80.40
2018-03-23T11:33:07.715Z,80.80
2018-03-23T11:35:38.895Z,81.00
2018-03-23T11:38:10.650Z,81.00
2018-03-23T11:40:42.710Z,81.90
2018-03-23T11:43:15.437Z,82.10
2018-03-23T11:45:47.965Z,82.10
2018-03-23T11:48:19.038Z,81.90
2018-03-23T11:50:50.260Z,82.70
2018-03-23T11:53:20.921Z,81.70
2018-03-23T11:55:54.795Z,81.30
2018-03-23T11:58:26.214Z,80.90
2018-03-23T12:01:00.581Z,81.00
2018-03-23T12:03:32.143Z,81.10
2018-03-23T12:06:05.029Z,82.30
2018-03-23T12:08:35.885Z,82.30
2018-03-23T12:11:06.359Z,81.80
2018-03-23T12:13:38.605Z,81.60
2018-03-23T12:16:09.259Z,82.30
2018-03-23T12:18:41.661Z,82.80
2018-03-23T12:21:13.425Z,82.90
2018-03-23T12:23:45.978Z,83.10
2018-03-23T12:26:18.980Z,83.00
2018-03-23T12:28:50.568Z,83.20
2018-03-23T12:31:21.523Z,82.60
2018-03-23T12:33:52.240Z,83.10
2018-03-23T12:36:23.639Z,82.20
2018-03-23T12:38:54.383Z,82.20
2018-03-23T12:41:25.933Z,82.30
2018-03-23T12:43:56.704Z,82.30
2018-03-23T12:46:27.449Z,83.10
2018-03-23T12:48:58.740Z,83.10
2018-03-23T12:51:29.377Z,82.60
2018-03-23T12:54:02.630Z,81.40
2018-03-23T12:56:33.029Z,81.40
2018-03-23T12:59:03.504Z,81.90
2018-03-23T13:01:34.599Z,82.70
2018-03-23T13:04:05.921Z,82.70
2018-03-23T13:06:37.764Z,82.50
2018-03-23T13:09:08.198Z,82.40
2018-03-23T13:11:38.226Z,82.10
2018-03-23T13:14:08.632Z,82.80
2018-03-23T13:16:42.675Z,83.00
2018-03-23T13:19:13.061Z,82.20
2018-03-23T13:21:45.862Z,82.20
2018-03-23T13:24:17.587Z,83.20
2018-03-23T13:26:47.778Z,82.50
2018-03-23T13:29:19.976Z,82.50
2018-03-23T13:31:50.618Z,82.90
2018-03-23T13:34:21.932Z,82.20
2018-03-23T13:36:57.788Z,82.90
2018-03-23T13:39:27.982Z,82.90
2018-03-23T13:41:58.891Z,82.40
2018-03-23T13:44:29.516Z,82.40
2018-03-23T13:47:00.391Z,83.30
2018-03-23T13:49:30.811Z,82.70
2018-03-23T13:52:01.314Z,81.80
2018-03-23T13:54:32.004Z,81.20
2018-03-23T13:57:04.358Z,80.90
2018-03-23T14:00:11.346Z,80.40
2018-03-23T14:02:44.509Z,80.50
2018-03-23T14:05:15.456Z,80.50
2018-03-23T14:07:46.778Z,80.40
2018-03-23T14:10:18.050Z,81.30
2018-03-23T14:12:48.599Z,80.60
2018-03-23T14:15:19.138Z,80.70
2018-03-23T14:17:51.760Z,80.70
2018-03-23T14:20:23.999Z,80.80
2018-03-23T14:22:59.972Z,80.90
2018-03-23T14:25:30.672Z,81.20
2018-03-23T14:28:01.991Z,80.20
2018-03-23T14:30:32.217Z,80.20
2018-03-23T14:33:02.612Z,80.10
2018-03-23T14:35:33.008Z,80.00
2018-03-23T14:38:03.296Z,79.80
2018-03-23T14:40:34.047Z,79.80
2018-03-23T14:43:04.592Z,79.60
2018-03-23T14:45:34.880Z,79.40
2018-03-23T14:48:05.536Z,79.20
2018-03-23T14:50:36.449Z,79.10
2018-03-23T14:53:07.827Z,78.50
2018-03-23T14:55:38.904Z,78.40
2018-03-23T14:58:09.746Z,78.60
2018-03-23T15:00:41.096Z,78.20
2018-03-23T15:03:13.177Z,78.50
2018-03-23T15:05:43.513Z,78.60
2018-03-23T15:08:17.395Z,78.90
2018-03-23T15:10:48.108Z,79.50
2018-03-23T15:13:18.719Z,78.90
2018-03-23T15:15:50.065Z,79.40
2018-03-23T15:18:20.427Z,78.90
2018-03-23T15:20:50.811Z,79.40
2018-03-23T15:23:22.069Z,79.40
2018-03-23T15:25:52.982Z,79.00
2018-03-23T15:28:23.979Z,79.10
2018-03-23T15:30:54.742Z,78.10
2018-03-23T15:33:26.325Z,78.40
2018-03-23T15:35:56.700Z,78.40
2018-03-23T15:38:35.812Z,78.80
2018-03-23T15:41:18.183Z,79.00
2018-03-23T15:43:59.924Z,79.50
2018-03-23T15:46:39.159Z,79.50
2018-03-23T15:49:10.052Z,79.30
2018-03-23T15:51:41.644Z,79.20
2018-03-23T15:54:13.662Z,80.50
2018-03-23T15:56:45.523Z,80.10
2018-03-23T15:59:16.931Z,79.70
2018-03-23T16:01:47.507Z,79.70
2018-03-23T16:04:28.491Z,80.80
2018-03-23T16:07:15.818Z,80.80
2018-03-23T16:09:48.848Z,80.70
2018-03-23T16:12:23.497Z,80.40
2018-03-23T16:14:55.844Z,81.20
2018-03-23T16:17:35.762Z,81.20
2018-03-23T16:20:06.226Z,80.60
2018-03-23T16:22:36.672Z,80.40
2018-03-23T16:25:08.175Z,81.10
2018-03-23T16:27:51.585Z,80.80
2018-03-23T16:30:31.967Z,80.50
2018-03-23T16:33:05.049Z,81.10
2018-03-23T16:35:35.719Z,81.80
2018-03-23T16:38:07.721Z,81.10
2018-03-23T16:40:38.140Z,81.40
2018-03-23T16:43:12.217Z,80.80
2018-03-23T16:45:42.613Z,80.50
2018-03-23T16:48:12.963Z,80.90
2018-03-23T16:50:45.133Z,81.40
2018-03-23T16:53:16.617Z,80.90
2018-03-23T16:55:49.906Z,81.20
2018-03-23T16:58:21.269Z,81.20
2018-03-23T17:00:56.539Z,81.50
2018-03-23T17:03:28.727Z,81.90
2018-03-23T17:05:58.850Z,82.20
2018-03-23T17:08:31.389Z,82.20
2018-03-23T17:11:01.973Z,81.40
2018-03-23T17:13:33.439Z,81.00
2018-03-23T17:16:04.364Z,81.10
2018-03-23T17:18:35.089Z,80.60
2018-03-23T17:21:05.784Z,80.50
2018-03-23T17:23:36.130Z,81.20
2018-03-23T17:26:09.172Z,81.20
2018-03-23T17:28:39.838Z,80.10
2018-03-23T17:31:10.297Z,80.10
2018-03-23T17:33:42.884Z,80.20
2018-03-23T17:36:13.577Z,80.30
2018-03-23T17:38:51.323Z,79.80
2018-03-23T17:41:22.391Z,80.30
2018-03-23T17:43:53.103Z,79.90
2018-03-23T17:46:25.054Z,80.80
2018-03-23T17:51:40.460Z,81.00
2018-03-23T17:54:20.768Z,80.80
2018-03-23T17:56:53.147Z,80.80
2018-03-23T17:59:33.950Z,81.20
2018-03-23T18:02:05.821Z,81.10
2018-03-23T18:04:38.256Z,80.60
2018-03-23T18:07:09.609Z,80.50
2018-03-23T18:09:41.616Z,80.40
2018-03-23T18:12:19.006Z,80.30
2018-03-23T18:15:08.267Z,80.70
2018-03-23T18:17:45.266Z,80.80
2018-03-23T18:20:16.072Z,81.20
2018-03-23T18:22:47.704Z,81.30
2018-03-23T18:25:19.536Z,81.80
2018-03-23T18:27:52.505Z,81.40
2018-03-23T18:30:26.048Z,81.30
2018-03-23T18:33:04.368Z,81.20
2018-03-23T18:35:37.786Z,81.90
2018-03-23T18:38:09.740Z,81.70
2018-03-23T18:40:40.310Z,81.10
2018-03-23T18:43:11.372Z,81.10
2018-03-23T18:45:42.230Z,81.10
2018-03-23T18:51:08.173Z,81.00
2018-03-23T18:53:47.006Z,81.00
2018-03-23T18:56:17.996Z,81.10
2018-03-23T18:58:49.995Z,81.40
2018-03-23T19:01:20.374Z,81.40
2018-03-23T19:03:51.348Z,81.00
2018-03-23T19:06:22.587Z,80.80
2018-03-23T19:08:53.190Z,80.50
2018-03-23T19:11:25.216Z,81.00
2018-03-23T19:14:00.883Z,80.80
2018-03-23T19:16:33.321Z,80.20
2018-03-23T19:19:13.400Z,80.40
2018-03-23T19:21:55.543Z,80.20
2018-03-23T19:24:35.589Z,80.20
2018-03-23T19:27:15.360Z,80.20
2018-03-23T19:29:48.680Z,80.10
2018-03-23T19:33:23.369Z,80.10
2018-03-23T19:35:56.488Z,79.70
2018-03-23T19:38:29.474Z,79.70
2018-03-23T19:41:05.576Z,80.30
2018-03-23T19:43:41.076Z,80.80
2018-03-23T19:46:21.124Z,80.80
2018-03-23T19:49:00.220Z,80.40
2018-03-23T19:51:32.924Z,80.60
2018-03-23T19:54:20.397Z,80.10
2018-03-23T19:57:04.432Z,79.60
2018-03-23T19:59:44.813Z,80.10
2018-03-23T20:02:16.098Z,80.70
2018-03-23T20:04:47.047Z,80.70
2018-03-23T20:07:28.141Z,79.60
2018-03-23T20:10:00.671Z,79.60
2018-03-23T20:12:33.605Z,79.10
2018-03-23T20:15:03.776Z,79.60
2018-03-23T20:17:38.842Z,79.20
2018-03-23T20:20:13.848Z,79.50
2018-03-23T20:22:43.971Z,79.90
2018-03-23T20:25:15.189Z,79.50
2018-03-23T20:27:49.668Z,79.70
2018-03-23T20:30:21.101Z,79.80
2018-03-23T20:32:51.638Z,80.00
2018-03-23T20:35:30.839Z,79.50
2018-03-23T20:38:02.560Z,79.80
2018-03-23T20:40:45.641Z,79.70
2018-03-23T20:43:25.205Z,79.80
2018-03-23T20:46:02.332Z,79.40
2018-03-23T20:48:42.165Z,79.30
2018-03-23T20:51:14.316Z,80.00
2018-03-23T20:53:45.863Z,79.80
2018-03-23T20:56:23.958Z,79.20
2018-03-23T20:59:01.039Z,79.80
2018-03-23T21:01:41.960Z,79.90
2018-03-23T21:04:31.139Z,80.20
2018-03-23T21:07:12.372Z,80.50
2018-03-23T21:09:45.823Z,80.30
2018-03-23T21:12:22.194Z,80.70
2018-03-23T21:14:53.388Z,80.60
2018-03-23T21:17:36.168Z,79.90
2018-03-23T21:20:19.053Z,80.90
2018-03-23T21:25:58.650Z,80.50
2018-03-23T21:28:42.187Z,79.80
2018-03-23T21:34:14.975Z,80.10
2018-03-23T21:37:05.977Z,80.80
2018-03-23T21:39:44.677Z,80.80
2018-03-23T21:42:33.175Z,80.60
2018-03-23T21:45:16.397Z,81.60
2018-03-23T21:48:02.742Z,81.20
2018-03-23T21:50:34.390Z,81.20
2018-03-23T21:53:08.443Z,80.80
2018-03-23T21:55:39.449Z,80.40
2018-03-23T21:58:10.184Z,80.20
2018-03-23T22:00:40.789Z,80.30
2018-03-23T22:03:11.265Z,80.40
2018-03-23T22:05:42.539Z,79.40
2018-03-23T22:08:21.763Z,79.50
2018-03-23T22:11:04.401Z,79.00
2018-03-23T22:13:44.921Z,79.00
2018-03-23T22:16:16.198Z,80.00
2018-03-23T22:18:51.844Z,79.80
2018-03-23T22:21:28.414Z,79.80
2018-03-23T22:24:03.673Z,79.10
2018-03-23T22:26:34.232Z,79.50
2018-03-23T22:29:15.029Z,79.10
2018-03-23T22:31:51.652Z,79.30
2018-03-23T22:34:33.289Z,78.60
2018-03-23T22:37:05.529Z,79.50
2018-03-23T22:39:37.106Z,79.20
2018-03-23T22:42:14.639Z,79.00
2018-03-23T22:44:48.728Z,77.30
2018-03-23T22:55:52.952Z,78.70
2018-03-23T22:58:23.648Z,78.60
2018-03-23T23:00:55.743Z,78.00
2018-03-23T23:03:28.412Z,78.00
2018-03-23T23:06:00.287Z,77.70
2018-03-23T23:08:40.457Z,79.70
2018-03-23T23:11:19.069Z,79.00
2018-03-23T23:13:50.821Z,78.10
2018-03-23T23:16:24.297Z,78.00
2018-03-23T23:19:01.056Z,78.80
2018-03-23T23:21:34.125Z,80.00
2018-03-23T23:24:05.191Z,79.40
2018-03-23T23:26:46.405Z,79.60
2018-03-23T23:29:18.877Z,79.60
2018-03-23T23:31:49.206Z,80.30
2018-03-23T23:34:34.475Z,79.90
2018-03-23T23:37:14.747Z,80.50
2018-03-23T23:39:51.243Z,80.40
2018-03-23T23:42:37.205Z,80.90
2018-03-23T23:45:12.885Z,80.90
2018-03-23T23:47:52.029Z,81.20
2018-03-23T23:50:49.812Z,81.50
2018-03-23T23:53:25.237Z,80.10
2018-03-23T23:56:02.424Z,80.50
2018-03-23T23:58:35.618Z,80.70
